sensor_id;sensor_type;location;lat;lon;timestamp;pressure;altitude;pressure_sealevel;temperature
69552;BMP280;58993;45.320;11.864;2022-09-09T00:01:35;101533.50;;;27.02
69552;BMP280;58993;45.320;11.864;2022-09-09T00:06:45;101531.04;;;27.01
69552;BMP280;58993;45.320;11.864;2022-09-09T00:09:18;101531.36;;;27.00
69552;BMP280;58993;45.320;11.864;2022-09-09T00:14:51;101532.94;;;27.00
69552;BMP280;58993;45.320;11.864;2022-09-09T00:17:33;101531.86;;;27.01
69552;BMP280;58993;45.320;11.864;2022-09-09T00:23:04;101524.67;;;26.99
69552;BMP280;58993;45.320;11.864;2022-09-09T00:25:46;101521.23;;;26.98
69552;BMP280;58993;45.320;11.864;2022-09-09T00:28:19;101521.08;;;26.97
69552;BMP280;58993;45.320;11.864;2022-09-09T00:30:45;101521.73;;;26.95
69552;BMP280;58993;45.320;11.864;2022-09-09T00:33:15;101523.80;;;26.96
69552;BMP280;58993;45.320;11.864;2022-09-09T00:35:47;101521.55;;;26.97
69552;BMP280;58993;45.320;11.864;2022-09-09T00:38:16;101522.19;;;26.97
69552;BMP280;58993;45.320;11.864;2022-09-09T00:40:53;101520.69;;;26.97
69552;BMP280;58993;45.320;11.864;2022-09-09T00:44:00;101516.98;;;26.97
69552;BMP280;58993;45.320;11.864;2022-09-09T00:46:50;101517.14;;;26.99
69552;BMP280;58993;45.320;11.864;2022-09-09T00:57:36;101506.17;;;26.95
69552;BMP280;58993;45.320;11.864;2022-09-09T01:02:59;101499.83;;;26.91
69552;BMP280;58993;45.320;11.864;2022-09-09T01:12:12;101513.30;;;26.89
69552;BMP280;58993;45.320;11.864;2022-09-09T01:17:23;101529.11;;;26.89
69552;BMP280;58993;45.320;11.864;2022-09-09T01:28:24;101528.07;;;26.83
69552;BMP280;58993;45.320;11.864;2022-09-09T01:30:50;101527.13;;;26.82
69552;BMP280;58993;45.320;11.864;2022-09-09T01:33:17;101521.31;;;26.82
69552;BMP280;58993;45.320;11.864;2022-09-09T01:35:45;101519.89;;;26.81
69552;BMP280;58993;45.320;11.864;2022-09-09T01:38:13;101512.81;;;26.81
69552;BMP280;58993;45.320;11.864;2022-09-09T01:40:39;101510.47;;;26.80
69552;BMP280;58993;45.320;11.864;2022-09-09T01:43:05;101506.92;;;26.80
69552;BMP280;58993;45.320;11.864;2022-09-09T01:45:32;101507.41;;;26.79
69552;BMP280;58993;45.320;11.864;2022-09-09T01:47:58;101508.66;;;26.80
69552;BMP280;58993;45.320;11.864;2022-09-09T01:50:24;101508.92;;;26.78
69552;BMP280;58993;45.320;11.864;2022-09-09T01:52:53;101510.04;;;26.77
69552;BMP280;58993;45.320;11.864;2022-09-09T01:55:25;101507.84;;;26.75
69552;BMP280;58993;45.320;11.864;2022-09-09T02:00:43;101503.83;;;26.73
69552;BMP280;58993;45.320;11.864;2022-09-09T02:03:27;101506.47;;;26.74
69552;BMP280;58993;45.320;11.864;2022-09-09T02:06:14;101508.06;;;26.73
69552;BMP280;58993;45.320;11.864;2022-09-09T02:08:50;101502.27;;;26.74
69552;BMP280;58993;45.320;11.864;2022-09-09T02:11:23;101499.93;;;26.75
69552;BMP280;58993;45.320;11.864;2022-09-09T02:13:53;101501.97;;;26.76
69552;BMP280;58993;45.320;11.864;2022-09-09T02:16:29;101503.20;;;26.77
69552;BMP280;58993;45.320;11.864;2022-09-09T02:19:03;101501.64;;;26.80
69552;BMP280;58993;45.320;11.864;2022-09-09T02:21:32;101501.36;;;26.80
69552;BMP280;58993;45.320;11.864;2022-09-09T02:24:02;101499.34;;;26.79
69552;BMP280;58993;45.320;11.864;2022-09-09T02:26:31;101499.11;;;26.79
69552;BMP280;58993;45.320;11.864;2022-09-09T02:29:01;101499.73;;;26.77
69552;BMP280;58993;45.320;11.864;2022-09-09T02:31:28;101493.75;;;26.75
69552;BMP280;58993;45.320;11.864;2022-09-09T02:34:01;101492.61;;;26.75
69552;BMP280;58993;45.320;11.864;2022-09-09T02:36:31;101490.31;;;26.72
69552;BMP280;58993;45.320;11.864;2022-09-09T02:38:59;101491.79;;;26.71
69552;BMP280;58993;45.320;11.864;2022-09-09T02:41:43;101492.71;;;26.71
69552;BMP280;58993;45.320;11.864;2022-09-09T02:44:13;101489.42;;;26.69
69552;BMP280;58993;45.320;11.864;2022-09-09T02:47:11;101486.43;;;26.68
69552;BMP280;58993;45.320;11.864;2022-09-09T02:52:18;101489.23;;;26.65
69552;BMP280;58993;45.320;11.864;2022-09-09T02:54:47;101484.13;;;26.62
69552;BMP280;58993;45.320;11.864;2022-09-09T02:57:22;101486.58;;;26.63
69552;BMP280;58993;45.320;11.864;2022-09-09T02:59:49;101490.95;;;26.65
69552;BMP280;58993;45.320;11.864;2022-09-09T03:02:17;101486.29;;;26.61
69552;BMP280;58993;45.320;11.864;2022-09-09T03:04:44;101490.58;;;26.66
69552;BMP280;58993;45.320;11.864;2022-09-09T03:07:10;101491.25;;;26.65
69552;BMP280;58993;45.320;11.864;2022-09-09T03:09:36;101490.34;;;26.63
69552;BMP280;58993;45.320;11.864;2022-09-09T03:12:02;101488.41;;;26.64
69552;BMP280;58993;45.320;11.864;2022-09-09T03:14:29;101481.77;;;26.60
69552;BMP280;58993;45.320;11.864;2022-09-09T03:16:55;101480.18;;;26.60
69552;BMP280;58993;45.320;11.864;2022-09-09T03:19:23;101475.20;;;26.58
69552;BMP280;58993;45.320;11.864;2022-09-09T03:21:49;101475.50;;;26.58
69552;BMP280;58993;45.320;11.864;2022-09-09T03:24:15;101478.84;;;26.57
69552;BMP280;58993;45.320;11.864;2022-09-09T03:26:41;101478.70;;;26.55
69552;BMP280;58993;45.320;11.864;2022-09-09T03:29:10;101477.80;;;26.54
69552;BMP280;58993;45.320;11.864;2022-09-09T03:31:39;101473.08;;;26.52
69552;BMP280;58993;45.320;11.864;2022-09-09T03:34:04;101471.63;;;26.51
69552;BMP280;58993;45.320;11.864;2022-09-09T03:36:31;101469.96;;;26.50
69552;BMP280;58993;45.320;11.864;2022-09-09T03:38:56;101471.86;;;26.53
69552;BMP280;58993;45.320;11.864;2022-09-09T03:41:24;101467.98;;;26.52
69552;BMP280;58993;45.320;11.864;2022-09-09T03:43:53;101471.30;;;26.53
69552;BMP280;58993;45.320;11.864;2022-09-09T03:46:21;101471.82;;;26.52
69552;BMP280;58993;45.320;11.864;2022-09-09T03:48:47;101469.93;;;26.51
69552;BMP280;58993;45.320;11.864;2022-09-09T03:51:13;101467.70;;;26.51
69552;BMP280;58993;45.320;11.864;2022-09-09T03:53:38;101469.58;;;26.49
69552;BMP280;58993;45.320;11.864;2022-09-09T03:56:06;101469.20;;;26.49
69552;BMP280;58993;45.320;11.864;2022-09-09T03:58:33;101464.38;;;26.45
69552;BMP280;58993;45.320;11.864;2022-09-09T04:01:04;101463.17;;;26.45
69552;BMP280;58993;45.320;11.864;2022-09-09T04:03:30;101465.67;;;26.43
69552;BMP280;58993;45.320;11.864;2022-09-09T04:05:58;101469.50;;;26.41
69552;BMP280;58993;45.320;11.864;2022-09-09T04:08:25;101468.02;;;26.41
69552;BMP280;58993;45.320;11.864;2022-09-09T04:10:51;101473.16;;;26.43
69552;BMP280;58993;45.320;11.864;2022-09-09T04:13:18;101471.09;;;26.42
69552;BMP280;58993;45.320;11.864;2022-09-09T04:15:51;101469.30;;;26.39
69552;BMP280;58993;45.320;11.864;2022-09-09T04:18:17;101467.64;;;26.40
69552;BMP280;58993;45.320;11.864;2022-09-09T04:20:43;101468.65;;;26.40
69552;BMP280;58993;45.320;11.864;2022-09-09T04:23:10;101467.89;;;26.39
69552;BMP280;58993;45.320;11.864;2022-09-09T04:25:36;101467.42;;;26.38
69552;BMP280;58993;45.320;11.864;2022-09-09T04:28:03;101466.50;;;26.38
69552;BMP280;58993;45.320;11.864;2022-09-09T04:30:28;101466.58;;;26.43
69552;BMP280;58993;45.320;11.864;2022-09-09T04:32:54;101462.56;;;26.42
69552;BMP280;58993;45.320;11.864;2022-09-09T04:35:19;101460.52;;;26.41
69552;BMP280;58993;45.320;11.864;2022-09-09T04:37:45;101456.41;;;26.38
69552;BMP280;58993;45.320;11.864;2022-09-09T04:40:11;101460.00;;;26.38
69552;BMP280;58993;45.320;11.864;2022-09-09T04:42:37;101459.70;;;26.37
69552;BMP280;58993;45.320;11.864;2022-09-09T04:45:05;101459.33;;;26.35
69552;BMP280;58993;45.320;11.864;2022-09-09T04:47:31;101455.75;;;26.34
69552;BMP280;58993;45.320;11.864;2022-09-09T04:49:57;101454.90;;;26.34
69552;BMP280;58993;45.320;11.864;2022-09-09T04:52:22;101453.39;;;26.33
69552;BMP280;58993;45.320;11.864;2022-09-09T04:54:48;101449.31;;;26.33
69552;BMP280;58993;45.320;11.864;2022-09-09T04:57:13;101452.38;;;26.33
69552;BMP280;58993;45.320;11.864;2022-09-09T04:59:39;101452.09;;;26.32
69552;BMP280;58993;45.320;11.864;2022-09-09T05:02:05;101449.79;;;26.31
69552;BMP280;58993;45.320;11.864;2022-09-09T05:04:31;101447.20;;;26.27
69552;BMP280;58993;45.320;11.864;2022-09-09T05:06:56;101447.52;;;26.25
69552;BMP280;58993;45.320;11.864;2022-09-09T05:09:22;101445.14;;;26.26
69552;BMP280;58993;45.320;11.864;2022-09-09T05:11:48;101446.98;;;26.26
69552;BMP280;58993;45.320;11.864;2022-09-09T05:14:14;101451.81;;;26.27
69552;BMP280;58993;45.320;11.864;2022-09-09T05:16:40;101457.71;;;26.27
69552;BMP280;58993;45.320;11.864;2022-09-09T05:19:06;101467.00;;;26.29
69552;BMP280;58993;45.320;11.864;2022-09-09T05:21:33;101466.49;;;26.31
69552;BMP280;58993;45.320;11.864;2022-09-09T05:23:59;101460.02;;;26.30
69552;BMP280;58993;45.320;11.864;2022-09-09T05:26:26;101459.52;;;26.32
69552;BMP280;58993;45.320;11.864;2022-09-09T05:28:51;101458.86;;;26.32
69552;BMP280;58993;45.320;11.864;2022-09-09T05:31:18;101461.69;;;26.34
69552;BMP280;58993;45.320;11.864;2022-09-09T05:33:45;101459.15;;;26.31
69552;BMP280;58993;45.320;11.864;2022-09-09T05:36:13;101461.27;;;26.34
69552;BMP280;58993;45.320;11.864;2022-09-09T05:38:40;101461.62;;;26.34
69552;BMP280;58993;45.320;11.864;2022-09-09T05:41:06;101470.87;;;26.36
69552;BMP280;58993;45.320;11.864;2022-09-09T05:43:33;101473.02;;;26.37
69552;BMP280;58993;45.320;11.864;2022-09-09T05:46:08;101471.71;;;26.35
69552;BMP280;58993;45.320;11.864;2022-09-09T05:48:36;101473.04;;;26.34
69552;BMP280;58993;45.320;11.864;2022-09-09T05:51:03;101472.17;;;26.35
69552;BMP280;58993;45.320;11.864;2022-09-09T05:53:30;101475.92;;;26.35
69552;BMP280;58993;45.320;11.864;2022-09-09T05:56:02;101481.15;;;26.36
69552;BMP280;58993;45.320;11.864;2022-09-09T05:58:30;101482.47;;;26.38
69552;BMP280;58993;45.320;11.864;2022-09-09T06:01:11;101487.42;;;26.42
69552;BMP280;58993;45.320;11.864;2022-09-09T06:03:40;101489.52;;;26.43
69552;BMP280;58993;45.320;11.864;2022-09-09T06:06:08;101499.01;;;26.45
69552;BMP280;58993;45.320;11.864;2022-09-09T06:08:36;101503.52;;;26.45
69552;BMP280;58993;45.320;11.864;2022-09-09T06:11:08;101505.75;;;26.46
69552;BMP280;58993;45.320;11.864;2022-09-09T06:13:34;101500.66;;;26.48
69552;BMP280;58993;45.320;11.864;2022-09-09T06:16:02;101496.96;;;26.46
69552;BMP280;58993;45.320;11.864;2022-09-09T06:18:29;101497.70;;;26.44
69552;BMP280;58993;45.320;11.864;2022-09-09T06:21:00;101494.25;;;26.46
69552;BMP280;58993;45.320;11.864;2022-09-09T06:23:27;101490.40;;;26.47
69552;BMP280;58993;45.320;11.864;2022-09-09T06:26:06;101491.37;;;26.45
69552;BMP280;58993;45.320;11.864;2022-09-09T06:28:33;101488.09;;;26.46
69552;BMP280;58993;45.320;11.864;2022-09-09T06:30:59;101484.30;;;26.47
69552;BMP280;58993;45.320;11.864;2022-09-09T06:33:25;101483.23;;;26.47
69552;BMP280;58993;45.320;11.864;2022-09-09T06:35:52;101479.11;;;26.48
69552;BMP280;58993;45.320;11.864;2022-09-09T06:38:18;101483.58;;;26.50
69552;BMP280;58993;45.320;11.864;2022-09-09T06:40:53;101479.05;;;26.49
69552;BMP280;58993;45.320;11.864;2022-09-09T06:43:23;101477.91;;;26.50
69552;BMP280;58993;45.320;11.864;2022-09-09T06:45:58;101474.70;;;26.53
69552;BMP280;58993;45.320;11.864;2022-09-09T06:48:25;101471.73;;;26.55
69552;BMP280;58993;45.320;11.864;2022-09-09T06:51:00;101471.24;;;26.57
69552;BMP280;58993;45.320;11.864;2022-09-09T06:53:27;101469.83;;;26.59
69552;BMP280;58993;45.320;11.864;2022-09-09T06:55:53;101467.92;;;26.61
69552;BMP280;58993;45.320;11.864;2022-09-09T06:58:18;101467.38;;;26.62
69552;BMP280;58993;45.320;11.864;2022-09-09T07:00:43;101463.81;;;26.62
69552;BMP280;58993;45.320;11.864;2022-09-09T07:03:10;101461.20;;;26.63
69552;BMP280;58993;45.320;11.864;2022-09-09T07:05:36;101459.87;;;26.65
69552;BMP280;58993;45.320;11.864;2022-09-09T07:08:02;101459.38;;;26.67
69552;BMP280;58993;45.320;11.864;2022-09-09T07:10:27;101455.71;;;26.68
69552;BMP280;58993;45.320;11.864;2022-09-09T07:12:53;101452.98;;;26.69
69552;BMP280;58993;45.320;11.864;2022-09-09T07:15:19;101448.70;;;26.71
69552;BMP280;58993;45.320;11.864;2022-09-09T07:17:45;101446.02;;;26.71
69552;BMP280;58993;45.320;11.864;2022-09-09T07:20:11;101444.57;;;26.71
69552;BMP280;58993;45.320;11.864;2022-09-09T07:22:37;101439.96;;;26.71
69552;BMP280;58993;45.320;11.864;2022-09-09T07:25:03;101444.09;;;26.71
69552;BMP280;58993;45.320;11.864;2022-09-09T07:27:29;101446.65;;;26.73
69552;BMP280;58993;45.320;11.864;2022-09-09T07:29:55;101439.18;;;26.74
69552;BMP280;58993;45.320;11.864;2022-09-09T07:32:20;101437.67;;;26.76
69552;BMP280;58993;45.320;11.864;2022-09-09T07:34:46;101432.40;;;26.78
69552;BMP280;58993;45.320;11.864;2022-09-09T07:37:12;101430.80;;;26.81
69552;BMP280;58993;45.320;11.864;2022-09-09T07:39:39;101427.52;;;26.83
69552;BMP280;58993;45.320;11.864;2022-09-09T07:42:05;101426.29;;;26.84
69552;BMP280;58993;45.320;11.864;2022-09-09T07:44:31;101424.59;;;26.85
69552;BMP280;58993;45.320;11.864;2022-09-09T07:47:00;101427.23;;;26.87
69552;BMP280;58993;45.320;11.864;2022-09-09T07:49:26;101430.96;;;26.91
69552;BMP280;58993;45.320;11.864;2022-09-09T07:51:52;101426.06;;;26.94
69552;BMP280;58993;45.320;11.864;2022-09-09T07:54:19;101428.30;;;26.97
69552;BMP280;58993;45.320;11.864;2022-09-09T07:56:49;101428.45;;;26.96
69552;BMP280;58993;45.320;11.864;2022-09-09T07:59:15;101430.80;;;26.98
69552;BMP280;58993;45.320;11.864;2022-09-09T08:01:47;101432.11;;;27.00
69552;BMP280;58993;45.320;11.864;2022-09-09T08:04:16;101433.85;;;27.00
69552;BMP280;58993;45.320;11.864;2022-09-09T08:06:48;101434.69;;;27.02
69552;BMP280;58993;45.320;11.864;2022-09-09T08:09:14;101441.76;;;27.03
69552;BMP280;58993;45.320;11.864;2022-09-09T08:11:41;101442.46;;;27.07
69552;BMP280;58993;45.320;11.864;2022-09-09T08:14:08;101445.73;;;27.09
69552;BMP280;58993;45.320;11.864;2022-09-09T08:16:36;101445.08;;;27.10
69552;BMP280;58993;45.320;11.864;2022-09-09T08:19:03;101446.52;;;27.12
69552;BMP280;58993;45.320;11.864;2022-09-09T08:21:30;101452.57;;;27.14
69552;BMP280;58993;45.320;11.864;2022-09-09T08:23:59;101452.30;;;27.15
69552;BMP280;58993;45.320;11.864;2022-09-09T08:26:30;101454.67;;;27.16
69552;BMP280;58993;45.320;11.864;2022-09-09T08:28:57;101460.34;;;27.18
69552;BMP280;58993;45.320;11.864;2022-09-09T08:31:35;101465.10;;;27.19
69552;BMP280;58993;45.320;11.864;2022-09-09T08:34:02;101466.67;;;27.21
69552;BMP280;58993;45.320;11.864;2022-09-09T08:36:30;101471.08;;;27.23
69552;BMP280;58993;45.320;11.864;2022-09-09T08:38:59;101469.63;;;27.24
69552;BMP280;58993;45.320;11.864;2022-09-09T08:52:17;101477.27;;;27.32
69552;BMP280;58993;45.320;11.864;2022-09-09T08:54:45;101481.88;;;27.35
69552;BMP280;58993;45.320;11.864;2022-09-09T08:57:17;101477.83;;;27.33
69552;BMP280;58993;45.320;11.864;2022-09-09T08:59:44;101472.23;;;27.34
69552;BMP280;58993;45.320;11.864;2022-09-09T09:02:32;101470.34;;;27.34
69552;BMP280;58993;45.320;11.864;2022-09-09T09:07:46;101463.50;;;27.36
69552;BMP280;58993;45.320;11.864;2022-09-09T09:10:36;101465.16;;;27.38
69552;BMP280;58993;45.320;11.864;2022-09-09T09:13:11;101470.21;;;27.41
69552;BMP280;58993;45.320;11.864;2022-09-09T09:15:38;101476.41;;;27.42
69552;BMP280;58993;45.320;11.864;2022-09-09T09:18:07;101475.13;;;27.44
69552;BMP280;58993;45.320;11.864;2022-09-09T09:20:59;101467.02;;;27.44
69552;BMP280;58993;45.320;11.864;2022-09-09T09:23:34;101462.06;;;27.41
69552;BMP280;58993;45.320;11.864;2022-09-09T09:26:01;101467.56;;;27.39
69552;BMP280;58993;45.320;11.864;2022-09-09T09:28:30;101466.19;;;27.40
69552;BMP280;58993;45.320;11.864;2022-09-09T09:31:06;101459.06;;;27.42
69552;BMP280;58993;45.320;11.864;2022-09-09T09:36:08;101450.77;;;27.40
69552;BMP280;58993;45.320;11.864;2022-09-09T09:38:35;101452.21;;;27.43
69552;BMP280;58993;45.320;11.864;2022-09-09T09:41:02;101458.38;;;27.46
69552;BMP280;58993;45.320;11.864;2022-09-09T09:43:36;101452.83;;;27.43
69552;BMP280;58993;45.320;11.864;2022-09-09T09:46:16;101449.47;;;27.46
69552;BMP280;58993;45.320;11.864;2022-09-09T09:48:43;101439.58;;;27.46
69552;BMP280;58993;45.320;11.864;2022-09-09T09:51:11;101435.39;;;27.46
69552;BMP280;58993;45.320;11.864;2022-09-09T09:53:40;101444.91;;;27.46
69552;BMP280;58993;45.320;11.864;2022-09-09T09:56:09;101451.03;;;27.45
69552;BMP280;58993;45.320;11.864;2022-09-09T10:01:39;101462.38;;;27.48
69552;BMP280;58993;45.320;11.864;2022-09-09T10:04:16;101467.63;;;27.50
69552;BMP280;58993;45.320;11.864;2022-09-09T10:06:43;101458.02;;;27.50
69552;BMP280;58993;45.320;11.864;2022-09-09T10:09:28;101452.53;;;27.51
69552;BMP280;58993;45.320;11.864;2022-09-09T10:12:30;101460.14;;;27.52
69552;BMP280;58993;45.320;11.864;2022-09-09T10:15:32;101458.43;;;27.53
69552;BMP280;58993;45.320;11.864;2022-09-09T10:18:22;101440.21;;;27.51
69552;BMP280;58993;45.320;11.864;2022-09-09T10:26:35;101453.61;;;27.52
69552;BMP280;58993;45.320;11.864;2022-09-09T10:29:32;101452.02;;;27.53
69552;BMP280;58993;45.320;11.864;2022-09-09T10:34:45;101448.39;;;27.50
69552;BMP280;58993;45.320;11.864;2022-09-09T10:40:42;101435.08;;;27.50
69552;BMP280;58993;45.320;11.864;2022-09-09T10:46:08;101445.15;;;27.50
69552;BMP280;58993;45.320;11.864;2022-09-09T10:48:49;101458.00;;;27.51
69552;BMP280;58993;45.320;11.864;2022-09-09T10:56:28;101461.16;;;27.51
69552;BMP280;58993;45.320;11.864;2022-09-09T11:03:57;101454.17;;;27.47
69552;BMP280;58993;45.320;11.864;2022-09-09T11:06:29;101447.58;;;27.48
69552;BMP280;58993;45.320;11.864;2022-09-09T11:08:57;101449.23;;;27.51
69552;BMP280;58993;45.320;11.864;2022-09-09T11:14:21;101454.06;;;27.50
69552;BMP280;58993;45.320;11.864;2022-09-09T11:16:53;101452.36;;;27.50
69552;BMP280;58993;45.320;11.864;2022-09-09T11:19:35;101449.73;;;27.51
69552;BMP280;58993;45.320;11.864;2022-09-09T11:22:08;101443.18;;;27.51
69552;BMP280;58993;45.320;11.864;2022-09-09T11:24:44;101443.93;;;27.53
69552;BMP280;58993;45.320;11.864;2022-09-09T11:35:10;101418.41;;;27.51
69552;BMP280;58993;45.320;11.864;2022-09-09T11:40:25;101414.96;;;27.46
69552;BMP280;58993;45.320;11.864;2022-09-09T11:43:15;101412.46;;;27.46
69552;BMP280;58993;45.320;11.864;2022-09-09T11:45:51;101384.09;;;27.45
69552;BMP280;58993;45.320;11.864;2022-09-09T11:48:37;101394.15;;;27.42
69552;BMP280;58993;45.320;11.864;2022-09-09T11:51:09;101434.98;;;27.41
69552;BMP280;58993;45.320;11.864;2022-09-09T11:53:50;101431.38;;;27.42
69552;BMP280;58993;45.320;11.864;2022-09-09T11:56:34;101403.26;;;27.43
69552;BMP280;58993;45.320;11.864;2022-09-09T11:59:26;101396.23;;;27.41
69552;BMP280;58993;45.320;11.864;2022-09-09T12:02:30;101403.09;;;27.40
69552;BMP280;58993;45.320;11.864;2022-09-09T12:05:15;101424.18;;;27.41
69552;BMP280;58993;45.320;11.864;2022-09-09T12:07:54;101447.88;;;27.41
69552;BMP280;58993;45.320;11.864;2022-09-09T12:10:33;101448.70;;;27.40
69552;BMP280;58993;45.320;11.864;2022-09-09T12:13:16;101457.80;;;27.39
69552;BMP280;58993;45.320;11.864;2022-09-09T12:16:02;101480.17;;;27.36
69552;BMP280;58993;45.320;11.864;2022-09-09T12:18:34;101489.80;;;27.36
69552;BMP280;58993;45.320;11.864;2022-09-09T12:21:16;101496.64;;;27.35
69552;BMP280;58993;45.320;11.864;2022-09-09T12:29:01;101519.21;;;27.27
69552;BMP280;58993;45.320;11.864;2022-09-09T12:31:46;101516.42;;;27.24
69552;BMP280;58993;45.320;11.864;2022-09-09T12:34:40;101514.02;;;27.25
69552;BMP280;58993;45.320;11.864;2022-09-09T12:37:32;101513.84;;;27.23
69552;BMP280;58993;45.320;11.864;2022-09-09T12:40:00;101519.94;;;27.26
69552;BMP280;58993;45.320;11.864;2022-09-09T12:42:27;101531.48;;;27.27
69552;BMP280;58993;45.320;11.864;2022-09-09T12:44:58;101538.58;;;27.30
69552;BMP280;58993;45.320;11.864;2022-09-09T12:47:43;101544.34;;;27.30
69552;BMP280;58993;45.320;11.864;2022-09-09T12:50:22;101547.02;;;27.25
69552;BMP280;58993;45.320;11.864;2022-09-09T12:52:53;101538.79;;;27.21
69552;BMP280;58993;45.320;11.864;2022-09-09T12:55:27;101522.44;;;27.12
69552;BMP280;58993;45.320;11.864;2022-09-09T12:57:56;101494.87;;;27.09
69552;BMP280;58993;45.320;11.864;2022-09-09T13:00:24;101477.55;;;27.08
69552;BMP280;58993;45.320;11.864;2022-09-09T13:02:55;101465.10;;;27.05
69552;BMP280;58993;45.320;11.864;2022-09-09T13:05:26;101462.46;;;27.02
69552;BMP280;58993;45.320;11.864;2022-09-09T13:08:04;101469.16;;;27.02
69552;BMP280;58993;45.320;11.864;2022-09-09T13:10:36;101473.91;;;27.00
69552;BMP280;58993;45.320;11.864;2022-09-09T13:13:05;101463.55;;;26.95
69552;BMP280;58993;45.320;11.864;2022-09-09T13:15:38;101450.38;;;26.94
69552;BMP280;58993;45.320;11.864;2022-09-09T13:18:07;101439.00;;;26.93
69552;BMP280;58993;45.320;11.864;2022-09-09T13:20:36;101429.71;;;26.94
69552;BMP280;58993;45.320;11.864;2022-09-09T13:23:02;101428.89;;;26.99
69552;BMP280;58993;45.320;11.864;2022-09-09T13:25:28;101433.30;;;27.01
69552;BMP280;58993;45.320;11.864;2022-09-09T13:28:03;101437.67;;;27.03
69552;BMP280;58993;45.320;11.864;2022-09-09T13:30:31;101436.05;;;27.06
69552;BMP280;58993;45.320;11.864;2022-09-09T13:35:30;101423.98;;;27.10
69552;BMP280;58993;45.320;11.864;2022-09-09T13:37:58;101418.46;;;27.10
69552;BMP280;58993;45.320;11.864;2022-09-09T13:40:24;101418.42;;;27.12
69552;BMP280;58993;45.320;11.864;2022-09-09T13:42:57;101418.09;;;27.13
69552;BMP280;58993;45.320;11.864;2022-09-09T13:45:25;101420.58;;;27.13
69552;BMP280;58993;45.320;11.864;2022-09-09T13:47:55;101421.94;;;27.13
69552;BMP280;58993;45.320;11.864;2022-09-09T13:50:24;101419.95;;;27.13
69552;BMP280;58993;45.320;11.864;2022-09-09T13:52:52;101422.21;;;27.14
69552;BMP280;58993;45.320;11.864;2022-09-09T13:55:19;101419.46;;;27.15
69552;BMP280;58993;45.320;11.864;2022-09-09T13:58:03;101417.04;;;27.18
69552;BMP280;58993;45.320;11.864;2022-09-09T14:00:32;101418.15;;;27.16
69552;BMP280;58993;45.320;11.864;2022-09-09T14:02:58;101417.98;;;27.16
69552;BMP280;58993;45.320;11.864;2022-09-09T14:05:27;101416.08;;;27.17
69552;BMP280;58993;45.320;11.864;2022-09-09T14:07:53;101416.23;;;27.19
69552;BMP280;58993;45.320;11.864;2022-09-09T14:10:19;101414.08;;;27.21
69552;BMP280;58993;45.320;11.864;2022-09-09T14:12:45;101418.64;;;27.22
69552;BMP280;58993;45.320;11.864;2022-09-09T14:15:12;101417.06;;;27.19
69552;BMP280;58993;45.320;11.864;2022-09-09T14:17:38;101419.08;;;27.22
69552;BMP280;58993;45.320;11.864;2022-09-09T14:20:04;101421.04;;;27.23
69552;BMP280;58993;45.320;11.864;2022-09-09T14:22:34;101416.38;;;27.21
69552;BMP280;58993;45.320;11.864;2022-09-09T14:25:00;101417.23;;;27.24
69552;BMP280;58993;45.320;11.864;2022-09-09T14:27:26;101419.82;;;27.25
69552;BMP280;58993;45.320;11.864;2022-09-09T14:29:52;101418.73;;;27.27
69552;BMP280;58993;45.320;11.864;2022-09-09T14:32:18;101414.95;;;27.30
69552;BMP280;58993;45.320;11.864;2022-09-09T14:34:44;101413.38;;;27.30
69552;BMP280;58993;45.320;11.864;2022-09-09T14:37:09;101410.21;;;27.31
69552;BMP280;58993;45.320;11.864;2022-09-09T14:39:35;101409.09;;;27.32
69552;BMP280;58993;45.320;11.864;2022-09-09T14:42:00;101410.13;;;27.33
69552;BMP280;58993;45.320;11.864;2022-09-09T14:44:27;101408.36;;;27.33
69552;BMP280;58993;45.320;11.864;2022-09-09T14:46:53;101407.95;;;27.33
69552;BMP280;58993;45.320;11.864;2022-09-09T14:49:19;101411.27;;;27.36
69552;BMP280;58993;45.320;11.864;2022-09-09T14:51:45;101412.53;;;27.37
69552;BMP280;58993;45.320;11.864;2022-09-09T14:54:11;101411.64;;;27.41
69552;BMP280;58993;45.320;11.864;2022-09-09T14:56:37;101413.15;;;27.43
69552;BMP280;58993;45.320;11.864;2022-09-09T14:59:04;101413.73;;;27.43
69552;BMP280;58993;45.320;11.864;2022-09-09T15:01:31;101413.13;;;27.44
69552;BMP280;58993;45.320;11.864;2022-09-09T15:03:59;101411.75;;;27.45
69552;BMP280;58993;45.320;11.864;2022-09-09T15:06:27;101414.00;;;27.47
69552;BMP280;58993;45.320;11.864;2022-09-09T15:08:54;101413.12;;;27.46
69552;BMP280;58993;45.320;11.864;2022-09-09T15:11:23;101412.10;;;27.47
69552;BMP280;58993;45.320;11.864;2022-09-09T15:13:51;101410.30;;;27.47
69552;BMP280;58993;45.320;11.864;2022-09-09T15:16:19;101408.55;;;27.49
69552;BMP280;58993;45.320;11.864;2022-09-09T15:18:45;101403.37;;;27.49
69552;BMP280;58993;45.320;11.864;2022-09-09T15:21:19;101402.52;;;27.51
69552;BMP280;58993;45.320;11.864;2022-09-09T15:23:46;101399.15;;;27.50
69552;BMP280;58993;45.320;11.864;2022-09-09T15:26:13;101400.38;;;27.50
69552;BMP280;58993;45.320;11.864;2022-09-09T15:28:43;101400.98;;;27.50
69552;BMP280;58993;45.320;11.864;2022-09-09T15:31:10;101397.61;;;27.51
69552;BMP280;58993;45.320;11.864;2022-09-09T15:33:36;101396.85;;;27.53
69552;BMP280;58993;45.320;11.864;2022-09-09T15:38:43;101400.11;;;27.59
69552;BMP280;58993;45.320;11.864;2022-09-09T15:41:10;101395.39;;;27.59
69552;BMP280;58993;45.320;11.864;2022-09-09T15:43:35;101400.83;;;27.63
69552;BMP280;58993;45.320;11.864;2022-09-09T15:48:43;101399.98;;;27.63
69552;BMP280;58993;45.320;11.864;2022-09-09T15:51:09;101400.77;;;27.62
69552;BMP280;58993;45.320;11.864;2022-09-09T15:53:39;101401.36;;;27.64
69552;BMP280;58993;45.320;11.864;2022-09-09T15:56:05;101405.48;;;27.64